sensor_id;sensor_type;location;lat;lon;timestamp;P1;durP1;ratioP1;P2;durP2;ratioP2
34657;SDS011;20865;43.312;27.152;2022-09-03T00:02:38;13.65;;;4.42;;
34657;SDS011;20865;43.312;27.152;2022-09-03T00:13:28;14.85;;;4.70;;
34657;SDS011;20865;43.312;27.152;2022-09-03T00:16:02;11.30;;;4.53;;
34657;SDS011;20865;43.312;27.152;2022-09-03T00:18:32;9.23;;;4.75;;
34657;SDS011;20865;43.312;27.152;2022-09-03T00:21:03;12.88;;;4.72;;
34657;SDS011;20865;43.312;27.152;2022-09-03T00:23:45;16.67;;;4.97;;
34657;SDS011;20865;43.312;27.152;2022-09-03T00:26:17;8.90;;;3.77;;
34657;SDS011;20865;43.312;27.152;2022-09-03T00:31:30;19.77;;;4.20;;
34657;SDS011;20865;43.312;27.152;2022-09-03T00:34:17;12.25;;;4.37;;
34657;SDS011;20865;43.312;27.152;2022-09-03T00:36:51;7.47;;;4.10;;
34657;SDS011;20865;43.312;27.152;2022-09-03T00:39:20;12.90;;;3.92;;
34657;SDS011;20865;43.312;27.152;2022-09-03T00:41:57;12.03;;;4.17;;
34657;SDS011;20865;43.312;27.152;2022-09-03T00:44:44;14.53;;;4.58;;
34657;SDS011;20865;43.312;27.152;2022-09-03T00:50:20;11.73;;;3.87;;
34657;SDS011;20865;43.312;27.152;2022-09-03T00:53:01;12.30;;;4.08;;
34657;SDS011;20865;43.312;27.152;2022-09-03T01:00:40;10.93;;;3.75;;
34657;SDS011;20865;43.312;27.152;2022-09-03T01:06:17;12.05;;;3.98;;
34657;SDS011;20865;43.312;27.152;2022-09-03T01:08:55;14.43;;;4.10;;
34657;SDS011;20865;43.312;27.152;2022-09-03T01:11:43;14.80;;;3.92;;
34657;SDS011;20865;43.312;27.152;2022-09-03T01:17:07;15.43;;;3.70;;
34657;SDS011;20865;43.312;27.152;2022-09-03T01:19:53;14.80;;;4.30;;
34657;SDS011;20865;43.312;27.152;2022-09-03T01:25:30;15.23;;;4.20;;
34657;SDS011;20865;43.312;27.152;2022-09-03T01:30:53;17.95;;;4.00;;
34657;SDS011;20865;43.312;27.152;2022-09-03T01:33:23;12.50;;;3.85;;
34657;SDS011;20865;43.312;27.152;2022-09-03T01:38:33;9.60;;;4.25;;
34657;SDS011;20865;43.312;27.152;2022-09-03T01:44:01;8.45;;;3.83;;
34657;SDS011;20865;43.312;27.152;2022-09-03T01:46:31;8.45;;;4.17;;
34657;SDS011;20865;43.312;27.152;2022-09-03T01:49:14;13.30;;;4.40;;
34657;SDS011;20865;43.312;27.152;2022-09-03T01:51:46;10.50;;;4.70;;
34657;SDS011;20865;43.312;27.152;2022-09-03T01:54:19;7.60;;;4.15;;
34657;SDS011;20865;43.312;27.152;2022-09-03T02:02:34;15.38;;;5.00;;
34657;SDS011;20865;43.312;27.152;2022-09-03T02:05:11;8.00;;;4.55;;
34657;SDS011;20865;43.312;27.152;2022-09-03T02:07:49;15.90;;;4.87;;
34657;SDS011;20865;43.312;27.152;2022-09-03T02:10:32;14.40;;;4.60;;
34657;SDS011;20865;43.312;27.152;2022-09-03T02:13:06;9.23;;;3.60;;
34657;SDS011;20865;43.312;27.152;2022-09-03T02:15:39;11.57;;;3.62;;
34657;SDS011;20865;43.312;27.152;2022-09-03T02:18:09;10.43;;;3.95;;
34657;SDS011;20865;43.312;27.152;2022-09-03T02:20:39;9.38;;;3.65;;
34657;SDS011;20865;43.312;27.152;2022-09-03T02:23:08;9.88;;;4.40;;
34657;SDS011;20865;43.312;27.152;2022-09-03T02:25:37;16.32;;;4.40;;
34657;SDS011;20865;43.312;27.152;2022-09-03T02:28:06;8.00;;;5.03;;
34657;SDS011;20865;43.312;27.152;2022-09-03T02:30:36;12.28;;;4.75;;
34657;SDS011;20865;43.312;27.152;2022-09-03T02:33:03;22.13;;;5.45;;
34657;SDS011;20865;43.312;27.152;2022-09-03T02:35:31;17.05;;;5.30;;
34657;SDS011;20865;43.312;27.152;2022-09-03T02:38:15;10.95;;;4.62;;
34657;SDS011;20865;43.312;27.152;2022-09-03T02:40:45;9.70;;;5.37;;
34657;SDS011;20865;43.312;27.152;2022-09-03T02:43:19;19.82;;;5.40;;
34657;SDS011;20865;43.312;27.152;2022-09-03T02:45:47;9.93;;;4.92;;
34657;SDS011;20865;43.312;27.152;2022-09-03T02:48:17;11.30;;;4.67;;
34657;SDS011;20865;43.312;27.152;2022-09-03T02:50:47;14.10;;;4.47;;
34657;SDS011;20865;43.312;27.152;2022-09-03T02:53:14;13.35;;;5.20;;
34657;SDS011;20865;43.312;27.152;2022-09-03T02:55:43;11.68;;;5.70;;
34657;SDS011;20865;43.312;27.152;2022-09-03T02:58:11;10.90;;;5.42;;
34657;SDS011;20865;43.312;27.152;2022-09-03T03:00:39;17.52;;;5.70;;
34657;SDS011;20865;43.312;27.152;2022-09-03T03:03:07;16.55;;;5.40;;
34657;SDS011;20865;43.312;27.152;2022-09-03T03:08:08;9.60;;;5.15;;
34657;SDS011;20865;43.312;27.152;2022-09-03T03:10:38;10.90;;;4.72;;
34657;SDS011;20865;43.312;27.152;2022-09-03T03:13:05;11.88;;;5.08;;
34657;SDS011;20865;43.312;27.152;2022-09-03T03:15:33;9.18;;;4.40;;
34657;SDS011;20865;43.312;27.152;2022-09-03T03:18:00;16.35;;;5.92;;
34657;SDS011;20865;43.312;27.152;2022-09-03T03:20:28;11.30;;;5.42;;
34657;SDS011;20865;43.312;27.152;2022-09-03T03:22:56;13.40;;;5.97;;
34657;SDS011;20865;43.312;27.152;2022-09-03T03:25:25;14.98;;;5.67;;
34657;SDS011;20865;43.312;27.152;2022-09-03T03:27:53;16.77;;;5.75;;
34657;SDS011;20865;43.312;27.152;2022-09-03T03:30:21;12.33;;;5.17;;
34657;SDS011;20865;43.312;27.152;2022-09-03T03:32:49;12.55;;;5.67;;
34657;SDS011;20865;43.312;27.152;2022-09-03T03:35:18;17.27;;;6.55;;
34657;SDS011;20865;43.312;27.152;2022-09-03T03:37:45;14.33;;;6.37;;
34657;SDS011;20865;43.312;27.152;2022-09-03T03:40:13;16.70;;;6.50;;
34657;SDS011;20865;43.312;27.152;2022-09-03T03:42:41;13.22;;;6.33;;
34657;SDS011;20865;43.312;27.152;2022-09-03T03:45:09;11.78;;;6.35;;
34657;SDS011;20865;43.312;27.152;2022-09-03T03:47:37;15.90;;;6.30;;
34657;SDS011;20865;43.312;27.152;2022-09-03T03:50:05;12.55;;;6.53;;
34657;SDS011;20865;43.312;27.152;2022-09-03T03:52:33;17.37;;;5.65;;
34657;SDS011;20865;43.312;27.152;2022-09-03T03:55:00;16.70;;;5.90;;
34657;SDS011;20865;43.312;27.152;2022-09-03T03:57:29;22.70;;;6.40;;
34657;SDS011;20865;43.312;27.152;2022-09-03T03:59:57;11.30;;;6.22;;
34657;SDS011;20865;43.312;27.152;2022-09-03T04:02:24;13.05;;;5.97;;
34657;SDS011;20865;43.312;27.152;2022-09-03T04:04:52;13.35;;;6.60;;
34657;SDS011;20865;43.312;27.152;2022-09-03T04:07:20;11.80;;;6.22;;
34657;SDS011;20865;43.312;27.152;2022-09-03T04:09:47;15.30;;;6.22;;
34657;SDS011;20865;43.312;27.152;2022-09-03T04:12:15;18.17;;;6.70;;
34657;SDS011;20865;43.312;27.152;2022-09-03T04:14:43;11.43;;;6.00;;
34657;SDS011;20865;43.312;27.152;2022-09-03T04:17:11;12.85;;;7.22;;
34657;SDS011;20865;43.312;27.152;2022-09-03T04:19:39;12.78;;;6.45;;
34657;SDS011;20865;43.312;27.152;2022-09-03T04:22:07;15.28;;;6.90;;
34657;SDS011;20865;43.312;27.152;2022-09-03T04:24:34;13.32;;;6.40;;
34657;SDS011;20865;43.312;27.152;2022-09-03T04:27:03;12.05;;;6.25;;
34657;SDS011;20865;43.312;27.152;2022-09-03T04:29:31;17.00;;;6.25;;
34657;SDS011;20865;43.312;27.152;2022-09-03T04:31:59;12.43;;;6.47;;
34657;SDS011;20865;43.312;27.152;2022-09-03T04:34:45;12.45;;;6.85;;
34657;SDS011;20865;43.312;27.152;2022-09-03T04:37:12;13.05;;;6.83;;
34657;SDS011;20865;43.312;27.152;2022-09-03T04:39:42;15.20;;;6.90;;
34657;SDS011;20865;43.312;27.152;2022-09-03T04:42:09;9.05;;;5.72;;
34657;SDS011;20865;43.312;27.152;2022-09-03T04:44:37;11.43;;;6.30;;
34657;SDS011;20865;43.312;27.152;2022-09-03T04:47:05;12.23;;;5.97;;
34657;SDS011;20865;43.312;27.152;2022-09-03T04:49:34;15.30;;;6.50;;
34657;SDS011;20865;43.312;27.152;2022-09-03T04:52:02;17.55;;;7.05;;
34657;SDS011;20865;43.312;27.152;2022-09-03T04:54:29;9.65;;;6.62;;
34657;SDS011;20865;43.312;27.152;2022-09-03T04:56:57;16.80;;;6.42;;
34657;SDS011;20865;43.312;27.152;2022-09-03T04:59:24;15.93;;;7.25;;
34657;SDS011;20865;43.312;27.152;2022-09-03T05:01:52;15.88;;;8.20;;
34657;SDS011;20865;43.312;27.152;2022-09-03T05:04:21;13.20;;;7.60;;
34657;SDS011;20865;43.312;27.152;2022-09-03T05:06:49;13.40;;;8.28;;
34657;SDS011;20865;43.312;27.152;2022-09-03T05:09:16;21.48;;;8.60;;
34657;SDS011;20865;43.312;27.152;2022-09-03T05:11:44;20.40;;;9.28;;
34657;SDS011;20865;43.312;27.152;2022-09-03T05:14:11;16.73;;;9.60;;
34657;SDS011;20865;43.312;27.152;2022-09-03T05:16:39;14.55;;;8.93;;
34657;SDS011;20865;43.312;27.152;2022-09-03T05:19:07;20.62;;;9.25;;
34657;SDS011;20865;43.312;27.152;2022-09-03T05:21:35;17.15;;;9.28;;
34657;SDS011;20865;43.312;27.152;2022-09-03T05:24:03;17.20;;;9.08;;
34657;SDS011;20865;43.312;27.152;2022-09-03T05:26:32;16.15;;;9.00;;
34657;SDS011;20865;43.312;27.152;2022-09-03T05:29:03;13.80;;;8.98;;
34657;SDS011;20865;43.312;27.152;2022-09-03T05:31:33;24.32;;;10.15;;
34657;SDS011;20865;43.312;27.152;2022-09-03T05:34:04;18.07;;;9.33;;
34657;SDS011;20865;43.312;27.152;2022-09-03T05:36:33;12.90;;;8.68;;
34657;SDS011;20865;43.312;27.152;2022-09-03T05:39:03;18.15;;;9.38;;
34657;SDS011;20865;43.312;27.152;2022-09-03T05:41:31;19.75;;;10.30;;
34657;SDS011;20865;43.312;27.152;2022-09-03T05:43:59;16.50;;;9.58;;
34657;SDS011;20865;43.312;27.152;2022-09-03T05:46:29;17.07;;;9.23;;
34657;SDS011;20865;43.312;27.152;2022-09-03T05:48:58;17.75;;;9.35;;
34657;SDS011;20865;43.312;27.152;2022-09-03T05:51:28;16.80;;;9.65;;
34657;SDS011;20865;43.312;27.152;2022-09-03T05:53:56;19.27;;;9.65;;
34657;SDS011;20865;43.312;27.152;2022-09-03T05:56:25;16.05;;;8.93;;
34657;SDS011;20865;43.312;27.152;2022-09-03T05:58:55;13.80;;;9.15;;
34657;SDS011;20865;43.312;27.152;2022-09-03T06:01:27;14.05;;;8.70;;
34657;SDS011;20865;43.312;27.152;2022-09-03T06:04:03;19.32;;;9.33;;
34657;SDS011;20865;43.312;27.152;2022-09-03T06:09:09;14.15;;;8.70;;
34657;SDS011;20865;43.312;27.152;2022-09-03T06:11:38;18.98;;;9.05;;
34657;SDS011;20865;43.312;27.152;2022-09-03T06:14:07;15.38;;;9.55;;
34657;SDS011;20865;43.312;27.152;2022-09-03T06:16:38;16.27;;;9.20;;
34657;SDS011;20865;43.312;27.152;2022-09-03T06:19:07;15.45;;;9.30;;
34657;SDS011;20865;43.312;27.152;2022-09-03T06:21:36;19.00;;;9.35;;
34657;SDS011;20865;43.312;27.152;2022-09-03T06:24:07;23.95;;;10.23;;
34657;SDS011;20865;43.312;27.152;2022-09-03T06:26:38;24.40;;;9.95;;
34657;SDS011;20865;43.312;27.152;2022-09-03T06:29:05;22.35;;;10.32;;
34657;SDS011;20865;43.312;27.152;2022-09-03T06:31:33;22.17;;;10.30;;
34657;SDS011;20865;43.312;27.152;2022-09-03T06:34:01;17.02;;;10.28;;
34657;SDS011;20865;43.312;27.152;2022-09-03T06:36:28;12.65;;;9.05;;
34657;SDS011;20865;43.312;27.152;2022-09-03T06:38:56;21.87;;;10.70;;
34657;SDS011;20865;43.312;27.152;2022-09-03T06:41:28;15.53;;;9.10;;
34657;SDS011;20865;43.312;27.152;2022-09-03T06:44:03;16.75;;;10.08;;
34657;SDS011;20865;43.312;27.152;2022-09-03T06:46:34;18.00;;;10.88;;
34657;SDS011;20865;43.312;27.152;2022-09-03T06:49:07;19.10;;;10.53;;
34657;SDS011;20865;43.312;27.152;2022-09-03T06:51:36;31.23;;;11.70;;
34657;SDS011;20865;43.312;27.152;2022-09-03T06:54:05;19.20;;;11.57;;
34657;SDS011;20865;43.312;27.152;2022-09-03T06:56:35;20.00;;;10.82;;
34657;SDS011;20865;43.312;27.152;2022-09-03T06:59:09;19.07;;;10.58;;
34657;SDS011;20865;43.312;27.152;2022-09-03T07:01:35;19.17;;;9.70;;
34657;SDS011;20865;43.312;27.152;2022-09-03T07:04:04;17.02;;;10.25;;
34657;SDS011;20865;43.312;27.152;2022-09-03T07:06:38;17.12;;;10.00;;
34657;SDS011;20865;43.312;27.152;2022-09-03T07:09:04;20.62;;;10.15;;
34657;SDS011;20865;43.312;27.152;2022-09-03T07:11:33;25.05;;;10.53;;
34657;SDS011;20865;43.312;27.152;2022-09-03T07:14:02;25.25;;;10.35;;
34657;SDS011;20865;43.312;27.152;2022-09-03T07:16:32;22.20;;;10.40;;
34657;SDS011;20865;43.312;27.152;2022-09-03T07:19:03;19.65;;;10.28;;
34657;SDS011;20865;43.312;27.152;2022-09-03T07:21:32;19.25;;;10.13;;
34657;SDS011;20865;43.312;27.152;2022-09-03T07:24:06;16.00;;;10.15;;
34657;SDS011;20865;43.312;27.152;2022-09-03T07:26:38;18.73;;;9.80;;
34657;SDS011;20865;43.312;27.152;2022-09-03T07:31:40;20.27;;;10.50;;
34657;SDS011;20865;43.312;27.152;2022-09-03T07:34:10;18.57;;;9.23;;
34657;SDS011;20865;43.312;27.152;2022-09-03T07:36:39;20.27;;;10.05;;
34657;SDS011;20865;43.312;27.152;2022-09-03T07:39:16;16.77;;;9.75;;
34657;SDS011;20865;43.312;27.152;2022-09-03T07:41:44;12.68;;;8.93;;
34657;SDS011;20865;43.312;27.152;2022-09-03T07:44:12;19.40;;;8.98;;
34657;SDS011;20865;43.312;27.152;2022-09-03T07:46:43;17.90;;;9.50;;
34657;SDS011;20865;43.312;27.152;2022-09-03T07:49:12;14.58;;;9.50;;
34657;SDS011;20865;43.312;27.152;2022-09-03T07:51:39;16.50;;;8.85;;
34657;SDS011;20865;43.312;27.152;2022-09-03T07:54:08;17.05;;;9.15;;
34657;SDS011;20865;43.312;27.152;2022-09-03T07:56:36;13.40;;;8.90;;
34657;SDS011;20865;43.312;27.152;2022-09-03T07:59:05;11.75;;;8.33;;
34657;SDS011;20865;43.312;27.152;2022-09-03T08:01:34;13.68;;;8.78;;
34657;SDS011;20865;43.312;27.152;2022-09-03T08:04:02;11.20;;;7.95;;
34657;SDS011;20865;43.312;27.152;2022-09-03T08:06:31;15.08;;;8.83;;
34657;SDS011;20865;43.312;27.152;2022-09-03T08:09:00;13.22;;;8.35;;
34657;SDS011;20865;43.312;27.152;2022-09-03T08:11:30;14.90;;;8.90;;
34657;SDS011;20865;43.312;27.152;2022-09-03T08:14:00;12.53;;;9.08;;
34657;SDS011;20865;43.312;27.152;2022-09-03T08:16:33;12.07;;;8.15;;
34657;SDS011;20865;43.312;27.152;2022-09-03T08:19:03;13.60;;;7.58;;
34657;SDS011;20865;43.312;27.152;2022-09-03T08:21:32;10.58;;;7.20;;
34657;SDS011;20865;43.312;27.152;2022-09-03T08:24:00;9.85;;;7.20;;
34657;SDS011;20865;43.312;27.152;2022-09-03T08:26:28;12.25;;;7.53;;
34657;SDS011;20865;43.312;27.152;2022-09-03T08:28:58;12.37;;;7.20;;
34657;SDS011;20865;43.312;27.152;2022-09-03T08:31:26;13.95;;;7.45;;
34657;SDS011;20865;43.312;27.152;2022-09-03T08:33:55;9.88;;;6.90;;
34657;SDS011;20865;43.312;27.152;2022-09-03T08:36:25;11.68;;;7.15;;
34657;SDS011;20865;43.312;27.152;2022-09-03T08:38:59;12.93;;;7.80;;
34657;SDS011;20865;43.312;27.152;2022-09-03T08:44:45;12.65;;;7.60;;
34657;SDS011;20865;43.312;27.152;2022-09-03T08:47:29;14.30;;;8.05;;
34657;SDS011;20865;43.312;27.152;2022-09-03T08:50:22;13.00;;;7.92;;
34657;SDS011;20865;43.312;27.152;2022-09-03T08:52:51;12.45;;;8.55;;
34657;SDS011;20865;43.312;27.152;2022-09-03T08:55:28;15.00;;;7.78;;
34657;SDS011;20865;43.312;27.152;2022-09-03T09:00:45;12.13;;;7.87;;
34657;SDS011;20865;43.312;27.152;2022-09-03T09:03:22;13.28;;;8.48;;
34657;SDS011;20865;43.312;27.152;2022-09-03T09:06:03;15.03;;;8.23;;
34657;SDS011;20865;43.312;27.152;2022-09-03T09:08:45;14.85;;;7.70;;
34657;SDS011;20865;43.312;27.152;2022-09-03T09:14:28;9.48;;;6.35;;
34657;SDS011;20865;43.312;27.152;2022-09-03T09:20:15;11.15;;;6.25;;
34657;SDS011;20865;43.312;27.152;2022-09-03T09:22:47;9.80;;;6.17;;
34657;SDS011;20865;43.312;27.152;2022-09-03T09:25:20;11.80;;;6.20;;
34657;SDS011;20865;43.312;27.152;2022-09-03T09:27:52;9.63;;;6.03;;
34657;SDS011;20865;43.312;27.152;2022-09-03T09:30:27;11.17;;;6.93;;
34657;SDS011;20865;43.312;27.152;2022-09-03T09:32:56;11.22;;;7.22;;
34657;SDS011;20865;43.312;27.152;2022-09-03T09:35:25;8.75;;;6.28;;
34657;SDS011;20865;43.312;27.152;2022-09-03T09:37:54;15.48;;;5.95;;
34657;SDS011;20865;43.312;27.152;2022-09-03T09:40:29;8.70;;;6.62;;
34657;SDS011;20865;43.312;27.152;2022-09-03T09:43:11;11.60;;;6.40;;
34657;SDS011;20865;43.312;27.152;2022-09-03T09:45:43;9.15;;;6.35;;
34657;SDS011;20865;43.312;27.152;2022-09-03T09:48:17;10.18;;;6.55;;
34657;SDS011;20865;43.312;27.152;2022-09-03T09:51:08;11.35;;;7.40;;
34657;SDS011;20865;43.312;27.152;2022-09-03T09:53:38;12.07;;;6.80;;
34657;SDS011;20865;43.312;27.152;2022-09-03T09:56:06;9.65;;;6.28;;
34657;SDS011;20865;43.312;27.152;2022-09-03T09:58:34;9.18;;;6.42;;
34657;SDS011;20865;43.312;27.152;2022-09-03T10:01:11;11.25;;;7.28;;
34657;SDS011;20865;43.312;27.152;2022-09-03T10:03:51;10.65;;;6.12;;
34657;SDS011;20865;43.312;27.152;2022-09-03T10:06:24;11.05;;;7.28;;
34657;SDS011;20865;43.312;27.152;2022-09-03T10:09:15;10.20;;;6.40;;
34657;SDS011;20865;43.312;27.152;2022-09-03T10:14:44;10.53;;;6.83;;
34657;SDS011;20865;43.312;27.152;2022-09-03T10:17:25;12.28;;;7.28;;
34657;SDS011;20865;43.312;27.152;2022-09-03T10:20:09;11.10;;;6.87;;
34657;SDS011;20865;43.312;27.152;2022-09-03T10:22:59;10.13;;;7.35;;
34657;SDS011;20865;43.312;27.152;2022-09-03T10:25:26;12.53;;;6.80;;
34657;SDS011;20865;43.312;27.152;2022-09-03T10:27:57;8.73;;;6.33;;
34657;SDS011;20865;43.312;27.152;2022-09-03T10:30:27;10.03;;;6.83;;
34657;SDS011;20865;43.312;27.152;2022-09-03T10:33:04;9.73;;;6.50;;
34657;SDS011;20865;43.312;27.152;2022-09-03T10:35:31;10.53;;;5.90;;
34657;SDS011;20865;43.312;27.152;2022-09-03T10:40:41;11.75;;;6.85;;
34657;SDS011;20865;43.312;27.152;2022-09-03T10:43:44;11.08;;;7.00;;
34657;SDS011;20865;43.312;27.152;2022-09-03T10:46:25;11.55;;;6.78;;
34657;SDS011;20865;43.312;27.152;2022-09-03T10:57:26;9.80;;;5.97;;
34657;SDS011;20865;43.312;27.152;2022-09-03T11:00:11;12.28;;;6.10;;
34657;SDS011;20865;43.312;27.152;2022-09-03T11:05:39;7.87;;;5.65;;
34657;SDS011;20865;43.312;27.152;2022-09-03T11:08:17;7.62;;;5.22;;
34657;SDS011;20865;43.312;27.152;2022-09-03T11:10:51;10.18;;;6.20;;
34657;SDS011;20865;43.312;27.152;2022-09-03T11:13:25;9.80;;;5.87;;
34657;SDS011;20865;43.312;27.152;2022-09-03T11:15:51;15.32;;;6.30;;
34657;SDS011;20865;43.312;27.152;2022-09-03T11:21:07;7.97;;;5.70;;
34657;SDS011;20865;43.312;27.152;2022-09-03T11:23:37;7.47;;;5.62;;
34657;SDS011;20865;43.312;27.152;2022-09-03T11:26:14;11.85;;;6.08;;
34657;SDS011;20865;43.312;27.152;2022-09-03T11:37:02;10.18;;;5.58;;
34657;SDS011;20865;43.312;27.152;2022-09-03T11:39:35;8.58;;;5.70;;
34657;SDS011;20865;43.312;27.152;2022-09-03T11:42:08;9.28;;;5.55;;
34657;SDS011;20865;43.312;27.152;2022-09-03T11:44:42;7.28;;;5.47;;
34657;SDS011;20865;43.312;27.152;2022-09-03T11:47:15;9.73;;;6.12;;
34657;SDS011;20865;43.312;27.152;2022-09-03T11:49:51;9.18;;;6.42;;
34657;SDS011;20865;43.312;27.152;2022-09-03T11:52:30;7.40;;;5.17;;
34657;SDS011;20865;43.312;27.152;2022-09-03T11:54:58;7.80;;;5.37;;
34657;SDS011;20865;43.312;27.152;2022-09-03T11:57:29;7.83;;;5.47;;
34657;SDS011;20865;43.312;27.152;2022-09-03T12:00:14;6.78;;;5.35;;
34657;SDS011;20865;43.312;27.152;2022-09-03T12:05:20;7.50;;;5.30;;
34657;SDS011;20865;43.312;27.152;2022-09-03T12:11:08;6.58;;;5.10;;
34657;SDS011;20865;43.312;27.152;2022-09-03T12:14:12;7.10;;;4.97;;
34657;SDS011;20865;43.312;27.152;2022-09-03T12:16:49;7.65;;;4.78;;
34657;SDS011;20865;43.312;27.152;2022-09-03T12:22:14;10.05;;;5.15;;
34657;SDS011;20865;43.312;27.152;2022-09-03T12:24:42;7.65;;;5.53;;
34657;SDS011;20865;43.312;27.152;2022-09-03T12:27:15;7.00;;;5.03;;
34657;SDS011;20865;43.312;27.152;2022-09-03T12:29:52;10.00;;;5.15;;
34657;SDS011;20865;43.312;27.152;2022-09-03T12:32:24;8.68;;;5.33;;
34657;SDS011;20865;43.312;27.152;2022-09-03T12:34:55;9.60;;;5.00;;
34657;SDS011;20865;43.312;27.152;2022-09-03T12:37:23;8.90;;;4.87;;
34657;SDS011;20865;43.312;27.152;2022-09-03T12:39:53;7.42;;;4.97;;
34657;SDS011;20865;43.312;27.152;2022-09-03T12:42:25;7.33;;;4.80;;
34657;SDS011;20865;43.312;27.152;2022-09-03T12:44:54;7.08;;;5.03;;
34657;SDS011;20865;43.312;27.152;2022-09-03T12:47:23;9.75;;;4.67;;
34657;SDS011;20865;43.312;27.152;2022-09-03T12:49:51;5.72;;;4.70;;
34657;SDS011;20865;43.312;27.152;2022-09-03T12:52:24;6.92;;;5.20;;
34657;SDS011;20865;43.312;27.152;2022-09-03T12:55:04;7.45;;;4.97;;
34657;SDS011;20865;43.312;27.152;2022-09-03T12:57:38;5.55;;;4.25;;
34657;SDS011;20865;43.312;27.152;2022-09-03T13:00:07;5.17;;;4.12;;
34657;SDS011;20865;43.312;27.152;2022-09-03T13:02:46;5.92;;;4.47;;
34657;SDS011;20865;43.312;27.152;2022-09-03T13:05:21;7.03;;;3.98;;
34657;SDS011;20865;43.312;27.152;2022-09-03T13:07:51;5.25;;;3.95;;
34657;SDS011;20865;43.312;27.152;2022-09-03T13:12:59;9.08;;;4.37;;
34657;SDS011;20865;43.312;27.152;2022-09-03T13:15:29;6.65;;;4.40;;
34657;SDS011;20865;43.312;27.152;2022-09-03T13:18:01;11.28;;;4.78;;
34657;SDS011;20865;43.312;27.152;2022-09-03T13:20:47;8.13;;;4.22;;
34657;SDS011;20865;43.312;27.152;2022-09-03T13:26:08;6.85;;;3.85;;
34657;SDS011;20865;43.312;27.152;2022-09-03T13:28:30;6.60;;;3.92;;
34657;SDS011;20865;43.312;27.152;2022-09-03T13:33:56;5.90;;;3.90;;
34657;SDS011;20865;43.312;27.152;2022-09-03T13:36:37;6.00;;;4.33;;
34657;SDS011;20865;43.312;27.152;2022-09-03T13:39:08;5.50;;;3.75;;
34657;SDS011;20865;43.312;27.152;2022-09-03T13:41:53;5.50;;;3.90;;
34657;SDS011;20865;43.312;27.152;2022-09-03T13:53:02;4.80;;;3.92;;
34657;SDS011;20865;43.312;27.152;2022-09-03T13:58:30;8.48;;;4.35;;
34657;SDS011;20865;43.312;27.152;2022-09-03T14:03:45;4.95;;;3.60;;
34657;SDS011;20865;43.312;27.152;2022-09-03T14:06:39;5.25;;;4.17;;
34657;SDS011;20865;43.312;27.152;2022-09-03T14:12:28;5.35;;;3.65;;
34657;SDS011;20865;43.312;27.152;2022-09-03T14:15:19;6.03;;;4.00;;
34657;SDS011;20865;43.312;27.152;2022-09-03T14:18:01;4.37;;;3.62;;
34657;SDS011;20865;43.312;27.152;2022-09-03T14:20:36;6.40;;;4.12;;
34657;SDS011;20865;43.312;27.152;2022-09-03T14:26:04;4.87;;;3.15;;
34657;SDS011;20865;43.312;27.152;2022-09-03T14:28:35;5.78;;;3.62;;
34657;SDS011;20865;43.312;27.152;2022-09-03T14:34:14;4.70;;;3.30;;
34657;SDS011;20865;43.312;27.152;2022-09-03T14:39:32;8.33;;;3.33;;
34657;SDS011;20865;43.312;27.152;2022-09-03T14:42:10;6.95;;;3.08;;
34657;SDS011;20865;43.312;27.152;2022-09-03T14:47:33;4.90;;;2.98;;
34657;SDS011;20865;43.312;27.152;2022-09-03T14:50:07;4.40;;;3.10;;
34657;SDS011;20865;43.312;27.152;2022-09-03T14:52:57;6.00;;;3.47;;
34657;SDS011;20865;43.312;27.152;2022-09-03T15:00:50;6.58;;;2.98;;
34657;SDS011;20865;43.312;27.152;2022-09-03T15:13:52;4.08;;;2.83;;
34657;SDS011;20865;43.312;27.152;2022-09-03T15:16:24;7.53;;;3.45;;
34657;SDS011;20865;43.312;27.152;2022-09-03T15:19:25;7.35;;;4.12;;
34657;SDS011;20865;43.312;27.152;2022-09-03T15:28:24;6.65;;;3.92;;
34657;SDS011;20865;43.312;27.152;2022-09-03T15:30:23;7.47;;;4.47;;
34657;SDS011;20865;43.312;27.152;2022-09-03T15:32:58;8.88;;;4.12;;
34657;SDS011;20865;43.312;27.152;2022-09-03T15:41:02;8.70;;;3.42;;
34657;SDS011;20865;43.312;27.152;2022-09-03T15:43:34;5.25;;;3.27;;
34657;SDS011;20865;43.312;27.152;2022-09-03T15:46:03;4.62;;;3.45;;
34657;SDS011;20865;43.312;27.152;2022-09-03T15:48:55;4.78;;;3.37;;
34657;SDS011;20865;43.312;27.152;2022-09-03T15:51:35;5.03;;;3.42;;
34657;SDS011;20865;43.312;27.152;2022-09-03T15:54:13;5.15;;;3.60;;
34657;SDS011;20865;43.312;27.152;2022-09-03T15:56:47;4.60;;;3.20;;
34657;SDS011;20865;43.312;27.152;2022-09-03T16:01:55;5.62;;;3.67;;
34657;SDS011;20865;43.312;27.152;2022-09-03T16:07:38;5.12;;;3.50;;
34657;SDS011;20865;43.312;27.152;2022-09-03T16:10:09;4.08;;;3.55;;
34657;SDS011;20865;43.312;27.152;2022-09-03T16:15:40;9.33;;;4.85;;
34657;SDS011;20865;43.312;27.152;2022-09-03T16:20:59;6.10;;;4.33;;
34657;SDS011;20865;43.312;27.152;2022-09-03T16:23:30;11.38;;;4.90;;
34657;SDS011;20865;43.312;27.152;2022-09-03T16:26:19;6.43;;;4.07;;
34657;SDS011;20865;43.312;27.152;2022-09-03T16:28:47;5.55;;;3.95;;
34657;SDS011;20865;43.312;27.152;2022-09-03T16:36:36;5.28;;;3.92;;
34657;SDS011;20865;43.312;27.152;2022-09-03T16:49:59;5.63;;;3.90;;
34657;SDS011;20865;43.312;27.152;2022-09-03T17:00:25;8.30;;;4.50;;
34657;SDS011;20865;43.312;27.152;2022-09-03T17:05:57;7.65;;;4.72;;
34657;SDS011;20865;43.312;27.152;2022-09-03T17:20:35;7.40;;;5.10;;
34657;SDS011;20865;43.312;27.152;2022-09-03T17:23:16;8.35;;;4.50;;
34657;SDS011;20865;43.312;27.152;2022-09-03T17:39:52;12.10;;;4.50;;
34657;SDS011;20865;43.312;27.152;2022-09-03T17:47:31;7.12;;;3.60;;
34657;SDS011;20865;43.312;27.152;2022-09-03T17:50:23;6.05;;;3.62;;
34657;SDS011;20865;43.312;27.152;2022-09-03T17:53:02;5.47;;;3.52;;
34657;SDS011;20865;43.312;27.152;2022-09-03T17:55:43;4.70;;;3.10;;
34657;SDS011;20865;43.312;27.152;2022-09-03T17:58:20;5.37;;;2.90;;
34657;SDS011;20865;43.312;27.152;2022-09-03T18:06:31;5.28;;;2.58;;
34657;SDS011;20865;43.312;27.152;2022-09-03T18:09:11;4.20;;;2.60;;
34657;SDS011;20865;43.312;27.152;2022-09-03T18:14:33;5.03;;;2.77;;
34657;SDS011;20865;43.312;27.152;2022-09-03T18:17:07;4.67;;;2.45;;
34657;SDS011;20865;43.312;27.152;2022-09-03T18:22:46;4.05;;;2.95;;
34657;SDS011;20865;43.312;27.152;2022-09-03T18:25:29;2.90;;;2.20;;
34657;SDS011;20865;43.312;27.152;2022-09-03T18:28:17;6.17;;;2.22;;
34657;SDS011;20865;43.312;27.152;2022-09-03T18:31:08;3.67;;;2.30;;
34657;SDS011;20865;43.312;27.152;2022-09-03T18:33:53;3.15;;;2.40;;
34657;SDS011;20865;43.312;27.152;2022-09-03T18:36:39;4.20;;;2.22;;
34657;SDS011;20865;43.312;27.152;2022-09-03T18:39:26;5.42;;;1.98;;
34657;SDS011;20865;43.312;27.152;2022-09-03T18:48:20;3.33;;;2.02;;
34657;SDS011;20865;43.312;27.152;2022-09-03T18:57:40;4.12;;;3.20;;
34657;SDS011;20865;43.312;27.152;2022-09-03T19:00:46;4.28;;;2.92;;
34657;SDS011;20865;43.312;27.152;2022-09-03T19:03:36;5.60;;;3.22;;
34657;SDS011;20865;43.312;27.152;2022-09-03T19:06:34;3.45;;;2.85;;
34657;SDS011;20865;43.312;27.152;2022-09-03T19:12:50;4.87;;;2.92;;
34657;SDS011;20865;43.312;27.152;2022-09-03T19:18:51;4.10;;;2.92;;
34657;SDS011;20865;43.312;27.152;2022-09-03T19:24:25;4.95;;;3.40;;
34657;SDS011;20865;43.312;27.152;2022-09-03T19:39:11;7.75;;;4.00;;
34657;SDS011;20865;43.312;27.152;2022-09-03T19:42:04;9.18;;;4.10;;